createdAt,value
2023-01-17T00:02:01.095Z,80.37
2023-01-17T00:04:47.321Z,80.62
2023-01-17T00:07:34.695Z,80.32
2023-01-17T00:10:07.506Z,80.43
2023-01-17T00:12:34.989Z,80.38
2023-01-17T00:15:02.229Z,80.49
2023-01-17T00:17:30.380Z,80.66
2023-01-17T00:20:15.969Z,80.60
2023-01-17T00:23:02.671Z,80.55
2023-01-17T00:25:51.476Z,80.19
2023-01-17T00:28:18.979Z,80.74
2023-01-17T00:30:46.355Z,80.13
2023-01-17T00:33:13.606Z,80.66
2023-01-17T00:35:41.120Z,80.66
2023-01-17T00:38:16.293Z,80.37
2023-01-17T00:40:44.519Z,80.50
2023-01-17T00:43:31.793Z,80.53
2023-01-17T00:46:17.923Z,80.48
2023-01-17T00:49:04.032Z,80.90
2023-01-17T00:51:51.919Z,80.39
2023-01-17T00:54:37.434Z,80.66
2023-01-17T00:57:23.636Z,80.50
2023-01-17T01:00:09.458Z,80.60
2023-01-17T01:02:55.638Z,80.49
2023-01-17T01:05:41.909Z,80.72
2023-01-17T01:08:53.134Z,80.67
2023-01-17T01:11:39.377Z,80.81
2023-01-17T01:14:26.742Z,80.86
2023-01-17T01:17:12.118Z,80.58
2023-01-17T01:19:57.757Z,80.89
2023-01-17T01:22:43.330Z,80.95
2023-01-17T01:25:28.896Z,81.17
2023-01-17T01:28:31.025Z,80.71
2023-01-17T01:31:20.837Z,81.29
2023-01-17T01:33:48.037Z,81.24
2023-01-17T01:36:14.953Z,81.16
2023-01-17T01:38:42.151Z,80.98
2023-01-17T01:41:09.151Z,81.21
2023-01-17T01:43:48.086Z,81.24
2023-01-17T01:46:35.636Z,80.94
2023-01-17T01:49:06.719Z,81.30
2023-01-17T01:51:35.677Z,81.32
2023-01-17T01:54:08.004Z,81.08
2023-01-17T01:56:35.215Z,81.59
2023-01-17T01:59:04.497Z,81.50
2023-01-17T02:01:35.755Z,81.49
2023-01-17T02:04:03.431Z,81.44
2023-01-17T02:06:31.803Z,81.76
2023-01-17T02:09:02.102Z,81.42
2023-01-17T02:11:29.102Z,81.73
2023-01-17T02:13:56.119Z,81.82
2023-01-17T02:16:29.071Z,81.91
2023-01-17T02:19:22.314Z,82.06
2023-01-17T02:21:55.171Z,81.65
2023-01-17T02:24:59.233Z,81.75
2023-01-17T02:27:28.936Z,81.90
2023-01-17T02:30:20.935Z,81.81
2023-01-17T02:32:52.659Z,82.06
2023-01-17T02:35:36.934Z,82.04
2023-01-17T02:38:18.857Z,82.14
2023-01-17T02:40:47.534Z,82.21
2023-01-17T02:43:16.296Z,82.26
2023-01-17T02:45:43.730Z,82.38
2023-01-17T02:48:12.382Z,82.12
2023-01-17T02:50:49.636Z,82.21
2023-01-17T02:53:35.158Z,82.52
2023-01-17T02:56:26.783Z,82.42
2023-01-17T02:59:05.841Z,82.31
2023-01-17T03:02:03.001Z,82.55
2023-01-17T03:04:48.816Z,82.15
2023-01-17T03:07:19.761Z,82.14
2023-01-17T03:09:49.062Z,82.46
2023-01-17T03:12:15.995Z,82.74
2023-01-17T03:14:42.992Z,82.48
2023-01-17T03:17:09.894Z,82.59
2023-01-17T03:19:36.965Z,82.83
2023-01-17T03:22:03.921Z,82.96
2023-01-17T03:24:30.956Z,82.61
2023-01-17T03:26:57.938Z,82.61
2023-01-17T03:29:24.899Z,82.75
2023-01-17T03:31:51.774Z,82.92
2023-01-17T03:34:18.754Z,82.68
2023-01-17T03:36:45.682Z,82.94
2023-01-17T03:39:12.736Z,83.24
2023-01-17T03:41:39.871Z,82.94
2023-01-17T03:44:06.844Z,83.15
2023-01-17T03:46:33.917Z,82.79
2023-01-17T03:49:00.779Z,82.99
2023-01-17T03:51:27.956Z,83.01
2023-01-17T03:53:54.855Z,83.12
2023-01-17T03:56:21.987Z,82.95
2023-01-17T03:58:49.112Z,82.99
2023-01-17T04:01:16.247Z,83.10
2023-01-17T04:03:43.235Z,83.03
2023-01-17T04:06:10.233Z,83.17
2023-01-17T04:08:37.079Z,83.15
2023-01-17T04:11:04.371Z,83.06
2023-01-17T04:13:31.280Z,83.12
2023-01-17T04:15:59.604Z,83.29
2023-01-17T04:18:26.648Z,83.35
2023-01-17T04:20:53.731Z,83.21
2023-01-17T04:23:20.655Z,83.34
2023-01-17T04:25:47.784Z,83.10
2023-01-17T04:28:14.879Z,83.32
2023-01-17T04:30:41.847Z,83.41
2023-01-17T04:33:08.763Z,83.41
2023-01-17T04:35:36.174Z,83.37
2023-01-17T04:38:03.567Z,83.48
2023-01-17T04:40:30.506Z,83.34
2023-01-17T04:42:58.184Z,83.47
2023-01-17T04:45:25.356Z,83.38
2023-01-17T04:47:52.243Z,83.68
2023-01-17T04:50:19.381Z,83.75
2023-01-17T04:52:46.391Z,83.61
2023-01-17T04:55:13.394Z,83.38
2023-01-17T04:57:40.273Z,83.51
2023-01-17T05:00:10.575Z,83.84
2023-01-17T05:02:37.762Z,83.78
2023-01-17T05:05:05.278Z,83.55
2023-01-17T05:07:32.846Z,83.91
2023-01-17T05:10:01.043Z,83.63
2023-01-17T05:12:28.436Z,83.65
2023-01-17T05:14:55.631Z,83.97
2023-01-17T05:17:22.731Z,83.61
2023-01-17T05:19:49.911Z,83.75
2023-01-17T05:22:17.012Z,83.56
2023-01-17T05:24:45.099Z,83.86
2023-01-17T05:27:13.080Z,83.50
2023-01-17T05:29:40.381Z,83.64
2023-01-17T05:32:07.442Z,83.64
2023-01-17T05:34:35.232Z,83.94
2023-01-17T05:37:02.275Z,83.88
2023-01-17T05:39:31.111Z,83.70
2023-01-17T05:41:59.633Z,83.93
2023-01-17T05:44:27.830Z,83.99
2023-01-17T05:46:55.834Z,84.02
2023-01-17T05:49:22.938Z,83.88
2023-01-17T05:51:50.117Z,84.03
2023-01-17T05:54:17.517Z,83.96
2023-01-17T05:56:44.818Z,84.10
2023-01-17T05:59:14.098Z,83.92
2023-01-17T06:01:41.342Z,84.01
2023-01-17T06:04:08.425Z,84.01
2023-01-17T06:06:35.474Z,84.05
2023-01-17T06:09:02.493Z,83.85
2023-01-17T06:11:29.445Z,84.03
2023-01-17T06:13:56.389Z,84.21
2023-01-17T06:16:23.409Z,84.04
2023-01-17T06:18:51.296Z,84.28
2023-01-17T06:21:18.689Z,84.27
2023-01-17T06:23:45.599Z,84.23
2023-01-17T06:26:12.562Z,84.06
2023-01-17T06:28:39.439Z,84.14
2023-01-17T06:31:09.684Z,84.32
2023-01-17T06:33:36.772Z,84.37
2023-01-17T06:36:03.987Z,84.21
2023-01-17T06:38:31.317Z,84.36
2023-01-17T06:41:00.489Z,84.22
2023-01-17T06:43:32.622Z,84.02
2023-01-17T06:46:00.901Z,84.15
2023-01-17T06:48:28.204Z,84.43
2023-01-17T06:50:55.242Z,84.64
2023-01-17T06:53:22.339Z,84.48
2023-01-17T06:55:49.349Z,84.13
2023-01-17T06:58:16.435Z,84.18
2023-01-17T07:00:44.194Z,84.52
2023-01-17T07:03:19.028Z,84.08
2023-01-17T07:05:46.191Z,84.21
2023-01-17T07:08:13.213Z,84.23
2023-01-17T07:10:40.298Z,84.31
2023-01-17T07:13:07.254Z,84.11
2023-01-17T07:15:34.330Z,84.20
2023-01-17T07:18:02.274Z,84.27
2023-01-17T07:20:29.416Z,84.24
2023-01-17T07:22:56.457Z,84.24
2023-01-17T07:25:23.543Z,83.96
2023-01-17T07:27:53.950Z,84.30
2023-01-17T07:30:21.774Z,84.44
2023-01-17T07:32:53.364Z,84.26
2023-01-17T07:35:20.540Z,84.28
2023-01-17T07:37:49.414Z,84.52
2023-01-17T07:40:17.713Z,84.26
2023-01-17T07:42:45.101Z,84.39
2023-01-17T07:45:13.844Z,84.20
2023-01-17T07:47:40.875Z,84.39
2023-01-17T07:50:09.603Z,84.23
2023-01-17T07:52:36.761Z,84.44
2023-01-17T07:55:04.890Z,84.29
2023-01-17T07:57:32.884Z,84.42
2023-01-17T08:00:00.081Z,84.20
2023-01-17T08:02:27.166Z,84.24
2023-01-17T08:04:54.236Z,84.35
2023-01-17T08:07:21.303Z,84.51
2023-01-17T08:09:50.263Z,84.55
2023-01-17T08:12:17.983Z,84.48
2023-01-17T08:14:45.206Z,84.57
2023-01-17T08:17:14.809Z,84.45
2023-01-17T08:19:41.915Z,84.38
2023-01-17T08:22:09.315Z,84.29
2023-01-17T08:24:37.697Z,84.30
2023-01-17T08:27:04.751Z,84.60
2023-01-17T08:29:31.794Z,84.56
2023-01-17T08:31:58.756Z,84.47
2023-01-17T08:34:26.521Z,84.49
2023-01-17T08:36:54.382Z,84.56
2023-01-17T08:39:22.223Z,84.55
2023-01-17T08:41:49.321Z,84.57
2023-01-17T08:44:16.432Z,84.49
2023-01-17T08:46:44.353Z,84.50
2023-01-17T08:49:12.261Z,84.51
2023-01-17T08:51:40.067Z,84.45
2023-01-17T08:54:07.415Z,84.56
2023-01-17T08:56:35.359Z,84.50
2023-01-17T08:59:03.276Z,84.48
2023-01-17T09:01:30.869Z,84.16
2023-01-17T09:03:57.862Z,84.38
2023-01-17T09:06:24.879Z,84.38
2023-01-17T09:08:52.464Z,84.55
2023-01-17T09:11:19.579Z,84.26
2023-01-17T09:13:46.527Z,84.25
2023-01-17T09:16:13.662Z,84.32
2023-01-17T09:18:40.842Z,84.11
2023-01-17T09:21:12.831Z,84.27
2023-01-17T09:23:40.014Z,84.16
2023-01-17T09:26:07.312Z,84.02
2023-01-17T09:28:41.007Z,84.16
2023-01-17T09:31:08.731Z,84.11
2023-01-17T09:33:36.253Z,83.91
2023-01-17T09:36:05.551Z,84.18
2023-01-17T09:38:33.143Z,83.99
2023-01-17T09:41:01.811Z,84.05
2023-01-17T09:43:41.087Z,83.86
2023-01-17T09:46:15.204Z,83.57
2023-01-17T09:48:43.433Z,83.86
2023-01-17T09:51:16.312Z,83.67
2023-01-17T09:53:44.375Z,83.68
2023-01-17T09:56:16.561Z,83.57
2023-01-17T09:59:03.973Z,83.60
2023-01-17T10:01:41.082Z,83.29
2023-01-17T10:04:24.529Z,83.16
2023-01-17T10:07:20.116Z,83.23
2023-01-17T10:09:56.505Z,83.21
2023-01-17T10:12:59.474Z,83.05
2023-01-17T10:16:08.476Z,83.01
2023-01-17T10:18:38.272Z,82.80
2023-01-17T10:21:23.633Z,82.38
2023-01-17T10:24:13.871Z,82.83
2023-01-17T10:26:42.090Z,82.70
2023-01-17T10:29:15.134Z,82.57
2023-01-17T10:31:51.193Z,82.25
2023-01-17T10:34:42.084Z,82.44
2023-01-17T10:37:21.595Z,82.17
2023-01-17T10:39:50.045Z,82.02
2023-01-17T10:42:17.013Z,82.01
2023-01-17T10:44:49.731Z,82.19
2023-01-17T10:47:24.514Z,81.98
2023-01-17T10:49:56.678Z,81.89
2023-01-17T10:53:01.271Z,81.59
2023-01-17T10:55:44.159Z,81.76
2023-01-17T10:58:14.336Z,81.92
2023-01-17T11:00:47.016Z,81.48
2023-01-17T11:03:17.228Z,81.59
2023-01-17T11:05:44.470Z,81.69
2023-01-17T11:08:13.659Z,81.57
2023-01-17T11:10:46.613Z,81.07
2023-01-17T11:13:22.611Z,81.49
2023-01-17T11:15:52.344Z,81.43
2023-01-17T11:18:21.578Z,81.26
2023-01-17T11:20:49.638Z,80.90
2023-01-17T11:23:17.859Z,81.13
2023-01-17T11:25:50.672Z,80.88
2023-01-17T11:28:30.824Z,80.75
2023-01-17T11:31:04.392Z,80.71
2023-01-17T11:33:47.030Z,80.62
2023-01-17T11:36:22.243Z,80.92
2023-01-17T11:39:27.920Z,80.99
2023-01-17T11:41:54.968Z,80.71
2023-01-17T11:44:33.897Z,80.87
2023-01-17T11:47:12.759Z,80.76
2023-01-17T11:49:45.371Z,80.64
2023-01-17T11:52:24.390Z,80.67
2023-01-17T11:54:53.996Z,80.31
2023-01-17T11:57:31.734Z,80.54
2023-01-17T12:00:29.632Z,80.43
2023-01-17T12:03:15.429Z,80.36
2023-01-17T12:05:42.517Z,80.58
2023-01-17T12:08:28.252Z,80.45
2023-01-17T12:11:22.294Z,80.26
2023-01-17T12:14:07.758Z,80.43
2023-01-17T12:17:12.233Z,80.34
2023-01-17T12:20:04.946Z,79.96
2023-01-17T12:22:50.771Z,80.15
2023-01-17T12:26:02.714Z,80.04
2023-01-17T12:28:32.632Z,80.22
2023-01-17T12:31:27.152Z,80.22
2023-01-17T12:33:59.612Z,80.00
2023-01-17T12:36:40.814Z,80.16
2023-01-17T12:39:12.022Z,80.05
2023-01-17T12:42:04.410Z,79.62
2023-01-17T12:45:03.026Z,79.81
2023-01-17T12:47:33.492Z,79.70
2023-01-17T12:50:21.773Z,80.10
2023-01-17T12:53:07.670Z,79.85
2023-01-17T12:55:50.043Z,79.82
2023-01-17T12:58:31.291Z,79.64
2023-01-17T13:01:24.034Z,80.00
2023-01-17T13:04:09.572Z,79.88
2023-01-17T13:07:10.793Z,79.85
2023-01-17T13:09:46.082Z,79.93
2023-01-17T13:12:15.714Z,80.01
2023-01-17T13:14:42.815Z,79.99
2023-01-17T13:17:48.396Z,79.98
2023-01-17T13:20:32.058Z,79.79
2023-01-17T13:23:13.012Z,79.99
2023-01-17T13:25:50.715Z,80.02
2023-01-17T13:28:42.109Z,80.18
2023-01-17T13:31:52.481Z,79.82
2023-01-17T13:34:35.059Z,79.79
2023-01-17T13:37:20.513Z,80.01
2023-01-17T13:40:09.305Z,79.55
2023-01-17T13:42:42.314Z,79.83
2023-01-17T13:45:18.756Z,79.49
2023-01-17T13:47:45.890Z,79.85
2023-01-17T13:50:31.332Z,79.88
2023-01-17T13:53:05.963Z,79.44
2023-01-17T13:55:47.862Z,79.57
2023-01-17T13:58:27.526Z,79.80
2023-01-17T14:00:55.179Z,79.49
2023-01-17T14:03:51.755Z,79.62
2023-01-17T14:06:40.719Z,79.61
2023-01-17T14:09:26.674Z,79.47
2023-01-17T14:12:19.632Z,79.32
2023-01-17T14:14:52.497Z,79.50
2023-01-17T14:17:23.200Z,79.31
2023-01-17T14:19:52.717Z,79.25
2023-01-17T14:22:19.700Z,79.53
2023-01-17T14:25:11.838Z,79.05
2023-01-17T14:27:45.350Z,79.01
2023-01-17T14:30:22.516Z,79.05
2023-01-17T14:33:01.682Z,78.96
2023-01-17T14:35:32.421Z,78.97
2023-01-17T14:38:05.489Z,79.00
2023-01-17T14:40:35.041Z,79.02
2023-01-17T14:43:44.228Z,78.77
2023-01-17T14:46:32.451Z,78.97
2023-01-17T14:49:06.277Z,78.84
2023-01-17T14:51:35.576Z,78.90
2023-01-17T14:54:08.633Z,78.97
2023-01-17T14:56:35.896Z,79.10
2023-01-17T14:59:22.221Z,78.65
2023-01-17T15:02:06.598Z,79.06
2023-01-17T15:04:39.747Z,78.75
2023-01-17T15:07:07.964Z,78.72
2023-01-17T15:09:37.258Z,78.57
2023-01-17T15:12:05.150Z,78.65
2023-01-17T15:14:38.819Z,78.51
2023-01-17T15:17:26.763Z,78.49
2023-01-17T15:20:01.891Z,78.29
2023-01-17T15:22:29.910Z,78.46
2023-01-17T15:24:57.073Z,78.75
2023-01-17T15:27:25.148Z,78.56
2023-01-17T15:29:52.497Z,78.64
2023-01-17T15:32:22.838Z,78.80
2023-01-17T15:34:51.874Z,78.38
2023-01-17T15:37:39.190Z,78.56
2023-01-17T15:40:12.455Z,78.47
2023-01-17T15:42:42.933Z,78.32
2023-01-17T15:45:17.215Z,78.44
2023-01-17T15:47:44.348Z,78.48
2023-01-17T15:50:30.372Z,78.37
2023-01-17T15:53:03.109Z,78.40
2023-01-17T15:55:36.695Z,78.31
2023-01-17T15:58:05.411Z,78.48
2023-01-17T16:00:42.123Z,78.33
2023-01-17T16:03:32.032Z,78.40
2023-01-17T16:06:01.241Z,78.37
2023-01-17T16:08:29.540Z,78.20
2023-01-17T16:11:02.328Z,78.18
2023-01-17T16:13:31.669Z,78.33
2023-01-17T16:16:24.015Z,78.27
2023-01-17T16:18:58.125Z,78.10
2023-01-17T16:21:27.619Z,78.17
2023-01-17T16:23:54.927Z,78.13
2023-01-17T16:26:22.493Z,78.13
2023-01-17T16:28:49.811Z,78.19
2023-01-17T16:31:18.183Z,78.06
2023-01-17T16:33:46.222Z,78.10
2023-01-17T16:36:15.255Z,77.95
2023-01-17T16:38:44.237Z,78.03
2023-01-17T16:41:11.386Z,78.18
2023-01-17T16:43:38.704Z,78.07
2023-01-17T16:46:06.187Z,78.17
2023-01-17T16:48:33.331Z,78.07
2023-01-17T16:51:06.080Z,78.20
2023-01-17T16:53:33.122Z,78.12
2023-01-17T16:56:07.236Z,77.94
2023-01-17T16:58:34.203Z,77.99
2023-01-17T17:01:01.212Z,78.13
2023-01-17T17:03:28.331Z,77.96
2023-01-17T17:05:57.331Z,78.09
2023-01-17T17:08:24.467Z,78.16
2023-01-17T17:10:51.482Z,77.90
2023-01-17T17:13:18.544Z,78.08
2023-01-17T17:15:45.590Z,78.17
2023-01-17T17:18:18.072Z,78.05
2023-01-17T17:20:45.521Z,78.24
2023-01-17T17:23:12.681Z,78.15
2023-01-17T17:25:39.755Z,78.25
2023-01-17T17:28:06.950Z,78.10
2023-01-17T17:30:34.719Z,78.12
2023-01-17T17:33:04.612Z,78.20
2023-01-17T17:35:34.527Z,78.03
2023-01-17T17:38:01.555Z,78.25
2023-01-17T17:40:29.699Z,78.13
2023-01-17T17:42:56.670Z,78.06
2023-01-17T17:45:23.722Z,78.21
2023-01-17T17:47:54.544Z,78.05
2023-01-17T17:50:21.792Z,78.16
2023-01-17T17:52:48.746Z,78.23
2023-01-17T17:55:19.122Z,77.91
2023-01-17T17:57:46.415Z,78.14
2023-01-17T18:00:13.784Z,78.12
2023-01-17T18:02:40.740Z,78.43
2023-01-17T18:05:08.317Z,78.59
2023-01-17T18:07:35.511Z,78.47
2023-01-17T18:10:03.818Z,78.52
2023-01-17T18:12:30.725Z,78.51
2023-01-17T18:14:57.635Z,78.48
2023-01-17T18:17:24.635Z,78.67
2023-01-17T18:19:52.801Z,78.67
2023-01-17T18:22:19.998Z,78.62
2023-01-17T18:24:46.855Z,78.84
2023-01-17T18:27:14.133Z,78.62
2023-01-17T18:29:41.170Z,78.80
2023-01-17T18:32:08.240Z,78.89
2023-01-17T18:34:35.976Z,78.93
2023-01-17T18:37:03.153Z,78.94
2023-01-17T18:39:30.627Z,79.09
2023-01-17T18:42:01.415Z,78.80
2023-01-17T18:44:29.990Z,78.77
2023-01-17T18:47:04.738Z,79.27
2023-01-17T18:49:33.793Z,79.02
2023-01-17T18:52:01.733Z,78.86
2023-01-17T18:54:30.111Z,79.38
2023-01-17T18:56:58.313Z,79.16
2023-01-17T18:59:26.335Z,79.17
2023-01-17T19:01:53.782Z,79.46
2023-01-17T19:04:24.467Z,79.01
2023-01-17T19:06:55.292Z,79.47
2023-01-17T19:09:23.010Z,79.17
2023-01-17T19:11:51.378Z,79.29
2023-01-17T19:14:18.492Z,79.31
2023-01-17T19:16:45.689Z,79.20
2023-01-17T19:19:14.853Z,79.27
2023-01-17T19:21:42.360Z,79.13
2023-01-17T19:24:10.843Z,79.17
2023-01-17T19:26:38.118Z,79.13
2023-01-17T19:29:06.912Z,79.45
2023-01-17T19:31:39.739Z,79.42
2023-01-17T19:34:06.876Z,79.21
2023-01-17T19:36:35.669Z,79.14
2023-01-17T19:39:06.202Z,79.52
2023-01-17T19:41:35.403Z,79.45
2023-01-17T19:44:07.321Z,79.61
2023-01-17T19:46:35.387Z,79.39
2023-01-17T19:49:03.196Z,79.20
2023-01-17T19:51:31.084Z,79.68
2023-01-17T19:54:04.369Z,79.25
2023-01-17T19:56:32.151Z,79.34
2023-01-17T19:59:02.088Z,79.24
2023-01-17T20:01:34.529Z,79.32
2023-01-17T20:04:02.853Z,79.37
2023-01-17T20:06:32.504Z,79.16
2023-01-17T20:09:00.103Z,79.16
2023-01-17T20:11:28.954Z,79.28
2023-01-17T20:13:57.855Z,79.17
2023-01-17T20:16:28.459Z,79.37
2023-01-17T20:18:56.207Z,79.10
2023-01-17T20:21:26.193Z,79.60
2023-01-17T20:23:54.721Z,79.42
2023-01-17T20:26:42.359Z,79.34
2023-01-17T20:29:17.451Z,79.34
2023-01-17T20:31:47.074Z,79.45
2023-01-17T20:34:19.824Z,79.50
2023-01-17T20:36:48.215Z,79.47
2023-01-17T20:39:16.093Z,79.51
2023-01-17T20:41:44.022Z,79.27
2023-01-17T20:44:14.903Z,79.38
2023-01-17T20:46:42.235Z,79.74
2023-01-17T20:49:18.907Z,79.45
2023-01-17T20:51:47.747Z,79.28
2023-01-17T20:54:18.025Z,79.39
2023-01-17T20:56:47.670Z,79.71
2023-01-17T20:59:17.931Z,79.72
2023-01-17T21:01:46.084Z,79.74
2023-01-17T21:04:16.263Z,79.39
2023-01-17T21:06:44.476Z,79.94
2023-01-17T21:09:14.443Z,79.76
2023-01-17T21:11:41.648Z,79.64
2023-01-17T21:14:08.772Z,79.76
2023-01-17T21:16:35.915Z,79.57
2023-01-17T21:19:03.533Z,79.59
2023-01-17T21:21:30.588Z,80.01
2023-01-17T21:23:59.420Z,79.65
2023-01-17T21:26:27.919Z,79.94
2023-01-17T21:28:55.894Z,79.87
2023-01-17T21:31:35.727Z,79.61
2023-01-17T21:34:05.053Z,79.69
2023-01-17T21:36:35.360Z,79.84
2023-01-17T21:39:05.078Z,79.96
2023-01-17T21:41:34.777Z,80.14
2023-01-17T21:44:04.182Z,80.37
2023-01-17T21:46:31.401Z,79.85
2023-01-17T21:48:58.372Z,80.16
2023-01-17T21:51:46.094Z,80.03
2023-01-17T21:54:13.053Z,80.32
2023-01-17T21:56:58.669Z,79.96
2023-01-17T21:59:25.739Z,80.35
2023-01-17T22:01:52.702Z,80.42
2023-01-17T22:04:20.274Z,80.00
2023-01-17T22:06:47.436Z,80.10
2023-01-17T22:09:15.298Z,80.15
2023-01-17T22:11:42.407Z,80.50
2023-01-17T22:14:09.599Z,80.14
2023-01-17T22:16:36.616Z,80.18
2023-01-17T22:19:03.653Z,80.25
2023-01-17T22:21:30.834Z,80.14
2023-01-17T22:23:59.602Z,80.25
2023-01-17T22:26:29.235Z,80.52
2023-01-17T22:28:56.670Z,80.58
2023-01-17T22:31:26.428Z,80.36
2023-01-17T22:34:04.391Z,80.57
2023-01-17T22:36:34.760Z,80.28
2023-01-17T22:39:01.941Z,80.64
2023-01-17T22:41:30.198Z,80.73
2023-01-17T22:43:58.984Z,80.60
2023-01-17T22:46:27.679Z,80.39
2023-01-17T22:48:55.967Z,80.64
2023-01-17T22:51:24.812Z,80.38
2023-01-17T22:53:54.173Z,80.75
2023-01-17T22:56:31.598Z,80.72
2023-01-17T22:59:00.975Z,80.48
2023-01-17T23:01:30.727Z,80.57
2023-01-17T23:03:59.631Z,80.48
2023-01-17T23:06:37.563Z,80.74
2023-01-17T23:09:15.710Z,80.75
2023-01-17T23:11:49.897Z,80.71
2023-01-17T23:14:22.241Z,80.80
2023-01-17T23:17:21.937Z,80.88
2023-01-17T23:19:51.237Z,80.93
2023-01-17T23:22:27.229Z,80.81
2023-01-17T23:24:55.631Z,80.89
2023-01-17T23:28:01.707Z,81.09
2023-01-17T23:30:39.325Z,81.17
2023-01-17T23:33:08.974Z,80.98
2023-01-17T23:35:42.203Z,80.80
2023-01-17T23:38:35.451Z,81.23
2023-01-17T23:41:25.904Z,81.04
2023-01-17T23:43:54.835Z,80.90
2023-01-17T23:46:22.728Z,81.21
2023-01-17T23:48:49.849Z,81.01
2023-01-17T23:51:17.242Z,80.98
2023-01-17T23:53:44.294Z,81.11
2023-01-17T23:56:17.294Z,81.30
2023-01-17T23:58:44.492Z,81.31
